sensor_id;sensor_type;location;lat;lon;timestamp;pressure;altitude;pressure_sealevel;temperature;humidity
67803;BME280;72185;51.378;-1.342;2023-11-19T00:00:24;99454.27;;;17.20;40.68
67803;BME280;72185;51.378;-1.342;2023-11-19T00:02:50;99457.17;;;17.04;40.88
67803;BME280;72185;51.378;-1.342;2023-11-19T00:05:15;99457.71;;;17.23;40.61
67803;BME280;72185;51.378;-1.342;2023-11-19T00:07:41;99456.90;;;17.08;40.74
67803;BME280;72185;51.378;-1.342;2023-11-19T00:10:08;99453.92;;;17.12;40.71
67803;BME280;72185;51.378;-1.342;2023-11-19T00:12:32;99457.35;;;16.91;40.98
67803;BME280;72185;51.378;-1.342;2023-11-19T00:14:58;99467.62;;;17.64;40.64
67803;BME280;72185;51.378;-1.342;2023-11-19T00:17:23;99469.99;;;17.05;40.76
67803;BME280;72185;51.378;-1.342;2023-11-19T00:19:49;99459.69;;;16.89;41.03
67803;BME280;72185;51.378;-1.342;2023-11-19T00:22:14;99473.64;;;16.97;40.86
67803;BME280;72185;51.378;-1.342;2023-11-19T00:24:40;99477.26;;;17.31;40.78
67803;BME280;72185;51.378;-1.342;2023-11-19T00:27:05;99470.47;;;17.33;40.75
67803;BME280;72185;51.378;-1.342;2023-11-19T00:29:31;99471.84;;;16.95;40.84
67803;BME280;72185;51.378;-1.342;2023-11-19T00:31:56;99482.92;;;17.03;40.69
67803;BME280;72185;51.378;-1.342;2023-11-19T00:34:21;99478.85;;;16.84;40.93
67803;BME280;72185;51.378;-1.342;2023-11-19T00:36:48;99488.05;;;17.04;41.08
67803;BME280;72185;51.378;-1.342;2023-11-19T00:39:12;99495.93;;;17.06;40.65
67803;BME280;72185;51.378;-1.342;2023-11-19T00:41:38;99490.30;;;16.87;40.91
67803;BME280;72185;51.378;-1.342;2023-11-19T00:44:04;99498.32;;;16.87;40.88
67803;BME280;72185;51.378;-1.342;2023-11-19T00:46:29;99493.21;;;17.24;40.77
67803;BME280;72185;51.378;-1.342;2023-11-19T00:48:54;99483.27;;;17.16;40.40
67803;BME280;72185;51.378;-1.342;2023-11-19T00:51:20;99474.18;;;17.18;40.36
67803;BME280;72185;51.378;-1.342;2023-11-19T00:53:45;99467.44;;;17.06;40.95
67803;BME280;72185;51.378;-1.342;2023-11-19T00:56:11;99458.94;;;16.94;40.70
67803;BME280;72185;51.378;-1.342;2023-11-19T00:58:36;99467.46;;;17.21;40.30
67803;BME280;72185;51.378;-1.342;2023-11-19T01:01:02;99463.19;;;17.46;39.90
67803;BME280;72185;51.378;-1.342;2023-11-19T01:03:27;99457.40;;;16.73;40.97
67803;BME280;72185;51.378;-1.342;2023-11-19T01:05:53;99463.72;;;16.81;40.86
67803;BME280;72185;51.378;-1.342;2023-11-19T01:08:19;99456.29;;;17.20;40.27
67803;BME280;72185;51.378;-1.342;2023-11-19T01:10:44;99449.97;;;16.95;40.60
67803;BME280;72185;51.378;-1.342;2023-11-19T01:13:10;99452.36;;;17.37;40.40
67803;BME280;72185;51.378;-1.342;2023-11-19T01:15:35;99458.60;;;17.13;40.32
67803;BME280;72185;51.378;-1.342;2023-11-19T01:18:00;99456.56;;;17.65;40.24
67803;BME280;72185;51.378;-1.342;2023-11-19T01:20:26;99461.42;;;17.04;40.43
67803;BME280;72185;51.378;-1.342;2023-11-19T01:22:52;99455.45;;;17.28;40.44
67803;BME280;72185;51.378;-1.342;2023-11-19T01:25:18;99454.02;;;16.89;40.58
67803;BME280;72185;51.378;-1.342;2023-11-19T01:27:43;99456.44;;;17.24;40.08
67803;BME280;72185;51.378;-1.342;2023-11-19T01:30:10;99458.98;;;17.34;40.58
67803;BME280;72185;51.378;-1.342;2023-11-19T01:32:34;99452.83;;;16.90;40.59
67803;BME280;72185;51.378;-1.342;2023-11-19T01:34:59;99445.60;;;17.13;40.22
67803;BME280;72185;51.378;-1.342;2023-11-19T01:37:25;99438.06;;;17.16;40.18
67803;BME280;72185;51.378;-1.342;2023-11-19T01:39:50;99447.71;;;17.56;39.57
67803;BME280;72185;51.378;-1.342;2023-11-19T01:42:16;99443.87;;;17.63;40.16
67803;BME280;72185;51.378;-1.342;2023-11-19T01:44:41;99447.15;;;17.22;40.02
67803;BME280;72185;51.378;-1.342;2023-11-19T01:47:07;99450.90;;;17.29;40.27
67803;BME280;72185;51.378;-1.342;2023-11-19T01:49:32;99454.23;;;16.90;40.45
67803;BME280;72185;51.378;-1.342;2023-11-19T01:51:58;99449.97;;;16.98;40.36
67803;BME280;72185;51.378;-1.342;2023-11-19T01:54:24;99454.35;;;17.23;39.97
67803;BME280;72185;51.378;-1.342;2023-11-19T01:56:49;99456.88;;;17.09;40.54
67803;BME280;72185;51.378;-1.342;2023-11-19T01:59:15;99458.74;;;17.10;40.11
67803;BME280;72185;51.378;-1.342;2023-11-19T02:01:40;99455.93;;;16.94;40.31
67803;BME280;72185;51.378;-1.342;2023-11-19T02:04:06;99444.23;;;17.07;40.14
67803;BME280;72185;51.378;-1.342;2023-11-19T02:06:32;99447.18;;;17.05;40.12
67803;BME280;72185;51.378;-1.342;2023-11-19T02:08:56;99456.78;;;17.32;39.77
67803;BME280;72185;51.378;-1.342;2023-11-19T02:11:22;99451.65;;;17.94;39.57
67803;BME280;72185;51.378;-1.342;2023-11-19T02:13:47;99450.18;;;17.33;39.68
67803;BME280;72185;51.378;-1.342;2023-11-19T02:16:13;99447.80;;;17.15;39.94
67803;BME280;72185;51.378;-1.342;2023-11-19T02:18:38;99441.39;;;17.22;39.82
67803;BME280;72185;51.378;-1.342;2023-11-19T02:21:04;99440.94;;;16.81;40.37
67803;BME280;72185;51.378;-1.342;2023-11-19T02:23:30;99441.59;;;16.74;40.51
67803;BME280;72185;51.378;-1.342;2023-11-19T02:26:02;99433.44;;;17.11;40.02
67803;BME280;72185;51.378;-1.342;2023-11-19T02:28:20;99440.74;;;17.11;39.96
67803;BME280;72185;51.378;-1.342;2023-11-19T02:30:46;99431.21;;;17.26;39.71
67803;BME280;72185;51.378;-1.342;2023-11-19T02:33:11;99418.68;;;17.42;40.16
67803;BME280;72185;51.378;-1.342;2023-11-19T02:35:37;99415.29;;;17.51;40.03
67803;BME280;72185;51.378;-1.342;2023-11-19T02:38:02;99402.62;;;17.92;39.11
67803;BME280;72185;51.378;-1.342;2023-11-19T02:40:28;99398.82;;;17.15;40.18
67803;BME280;72185;51.378;-1.342;2023-11-19T02:42:54;99398.04;;;17.44;39.74
67803;BME280;72185;51.378;-1.342;2023-11-19T02:45:19;99385.49;;;16.86;40.17
67803;BME280;72185;51.378;-1.342;2023-11-19T02:47:44;99388.40;;;17.38;39.83
67803;BME280;72185;51.378;-1.342;2023-11-19T02:50:10;99375.30;;;17.25;39.58
67803;BME280;72185;51.378;-1.342;2023-11-19T02:52:35;99374.83;;;17.46;39.66
67803;BME280;72185;51.378;-1.342;2023-11-19T02:55:01;99370.89;;;16.86;40.14
67803;BME280;72185;51.378;-1.342;2023-11-19T02:57:31;99377.35;;;17.03;39.88
67803;BME280;72185;51.378;-1.342;2023-11-19T02:59:52;99378.96;;;16.92;40.03
67803;BME280;72185;51.378;-1.342;2023-11-19T03:02:18;99384.94;;;17.18;39.67
67803;BME280;72185;51.378;-1.342;2023-11-19T03:04:43;99391.50;;;17.43;39.97
67803;BME280;72185;51.378;-1.342;2023-11-19T03:07:08;99396.30;;;17.36;39.74
67803;BME280;72185;51.378;-1.342;2023-11-19T03:09:33;99400.18;;;17.33;40.09
67803;BME280;72185;51.378;-1.342;2023-11-19T03:11:59;99394.94;;;16.64;40.42
67803;BME280;72185;51.378;-1.342;2023-11-19T03:14:25;99402.89;;;16.98;39.90
67803;BME280;72185;51.378;-1.342;2023-11-19T03:16:50;99394.24;;;17.25;39.86
67803;BME280;72185;51.378;-1.342;2023-11-19T03:19:16;99388.24;;;17.15;40.03
67803;BME280;72185;51.378;-1.342;2023-11-19T03:21:41;99375.16;;;16.96;39.88
67803;BME280;72185;51.378;-1.342;2023-11-19T03:24:07;99375.51;;;17.91;39.25
67803;BME280;72185;51.378;-1.342;2023-11-19T03:26:32;99396.98;;;16.54;40.45
67803;BME280;72185;51.378;-1.342;2023-11-19T03:28:58;99400.88;;;17.41;39.93
67803;BME280;72185;51.378;-1.342;2023-11-19T03:31:23;99393.53;;;16.81;40.42
67803;BME280;72185;51.378;-1.342;2023-11-19T03:33:49;99378.44;;;16.75;40.47
67803;BME280;72185;51.378;-1.342;2023-11-19T03:36:14;99383.97;;;16.89;40.37
67803;BME280;72185;51.378;-1.342;2023-11-19T03:38:40;99388.27;;;16.48;40.53
67803;BME280;72185;51.378;-1.342;2023-11-19T03:41:10;99390.64;;;17.33;40.05
67803;BME280;72185;51.378;-1.342;2023-11-19T03:43:31;99393.44;;;16.68;40.25
67803;BME280;72185;51.378;-1.342;2023-11-19T03:45:56;99391.93;;;16.44;40.50
67803;BME280;72185;51.378;-1.342;2023-11-19T03:48:22;99392.62;;;16.99;40.15
67803;BME280;72185;51.378;-1.342;2023-11-19T03:50:47;99391.49;;;17.23;40.09
67803;BME280;72185;51.378;-1.342;2023-11-19T03:53:13;99390.24;;;16.40;40.54
67803;BME280;72185;51.378;-1.342;2023-11-19T03:55:38;99387.83;;;17.15;40.17
67803;BME280;72185;51.378;-1.342;2023-11-19T03:58:04;99387.99;;;17.22;39.40
67803;BME280;72185;51.378;-1.342;2023-11-19T04:00:29;99382.15;;;17.51;39.65
67803;BME280;72185;51.378;-1.342;2023-11-19T04:02:55;99388.41;;;17.09;39.52
67803;BME280;72185;51.378;-1.342;2023-11-19T04:05:20;99381.98;;;17.36;39.82
67803;BME280;72185;51.378;-1.342;2023-11-19T04:07:46;99382.76;;;17.13;39.49
67803;BME280;72185;51.378;-1.342;2023-11-19T04:10:12;99387.36;;;17.35;39.74
67803;BME280;72185;51.378;-1.342;2023-11-19T04:12:37;99394.11;;;17.15;39.76
67803;BME280;72185;51.378;-1.342;2023-11-19T04:15:03;99388.50;;;17.06;39.49
67803;BME280;72185;51.378;-1.342;2023-11-19T04:17:28;99390.29;;;17.54;39.49
67803;BME280;72185;51.378;-1.342;2023-11-19T04:19:54;99388.51;;;17.28;39.15
67803;BME280;72185;51.378;-1.342;2023-11-19T04:22:19;99384.16;;;16.78;40.52
67803;BME280;72185;51.378;-1.342;2023-11-19T04:24:45;99378.90;;;17.29;39.94
67803;BME280;72185;51.378;-1.342;2023-11-19T04:27:10;99375.26;;;17.11;39.75
67803;BME280;72185;51.378;-1.342;2023-11-19T04:29:36;99376.52;;;17.49;39.24
67803;BME280;72185;51.378;-1.342;2023-11-19T04:32:01;99375.87;;;17.17;39.22
67803;BME280;72185;51.378;-1.342;2023-11-19T04:34:27;99377.52;;;17.69;39.15
67803;BME280;72185;51.378;-1.342;2023-11-19T04:36:53;99372.15;;;17.66;39.27
67803;BME280;72185;51.378;-1.342;2023-11-19T04:39:18;99376.87;;;17.57;39.34
67803;BME280;72185;51.378;-1.342;2023-11-19T04:41:47;99379.63;;;16.89;40.02
67803;BME280;72185;51.378;-1.342;2023-11-19T04:44:09;99381.61;;;16.57;40.09
67803;BME280;72185;51.378;-1.342;2023-11-19T04:46:35;99384.08;;;17.41;39.61
67803;BME280;72185;51.378;-1.342;2023-11-19T04:49:00;99382.36;;;17.23;39.53
67803;BME280;72185;51.378;-1.342;2023-11-19T04:51:26;99387.72;;;17.49;39.49
67803;BME280;72185;51.378;-1.342;2023-11-19T04:53:51;99394.32;;;17.41;39.21
67803;BME280;72185;51.378;-1.342;2023-11-19T04:56:17;99395.80;;;17.16;39.16
67803;BME280;72185;51.378;-1.342;2023-11-19T04:58:42;99393.02;;;17.46;38.75
67803;BME280;72185;51.378;-1.342;2023-11-19T05:01:13;99401.43;;;17.39;39.53
67803;BME280;72185;51.378;-1.342;2023-11-19T05:03:34;99398.66;;;17.43;39.21
67803;BME280;72185;51.378;-1.342;2023-11-19T05:05:59;99396.58;;;16.99;39.40
67803;BME280;72185;51.378;-1.342;2023-11-19T05:08:25;99384.03;;;17.73;39.03
67803;BME280;72185;51.378;-1.342;2023-11-19T05:10:50;99385.54;;;17.24;39.01
67803;BME280;72185;51.378;-1.342;2023-11-19T05:13:16;99387.43;;;17.74;38.98
67803;BME280;72185;51.378;-1.342;2023-11-19T05:15:41;99383.04;;;17.70;39.02
67803;BME280;72185;51.378;-1.342;2023-11-19T05:18:07;99381.72;;;17.07;39.22
67803;BME280;72185;51.378;-1.342;2023-11-19T05:20:32;99387.02;;;16.32;40.23
67803;BME280;72185;51.378;-1.342;2023-11-19T05:22:58;99384.97;;;17.76;38.92
67803;BME280;72185;51.378;-1.342;2023-11-19T05:25:23;99377.17;;;17.01;39.28
67803;BME280;72185;51.378;-1.342;2023-11-19T05:27:49;99378.73;;;17.40;39.40
67803;BME280;72185;51.378;-1.342;2023-11-19T05:30:14;99376.61;;;17.39;39.40
67803;BME280;72185;51.378;-1.342;2023-11-19T05:32:40;99371.15;;;17.23;38.92
67803;BME280;72185;51.378;-1.342;2023-11-19T05:35:07;99375.66;;;16.92;39.32
67803;BME280;72185;51.378;-1.342;2023-11-19T05:37:31;99379.05;;;16.69;39.72
67803;BME280;72185;51.378;-1.342;2023-11-19T05:39:56;99380.01;;;17.24;39.61
67803;BME280;72185;51.378;-1.342;2023-11-19T05:42:22;99379.11;;;17.60;39.05
67803;BME280;72185;51.378;-1.342;2023-11-19T05:44:47;99374.53;;;17.25;39.25
67803;BME280;72185;51.378;-1.342;2023-11-19T05:47:13;99370.60;;;17.43;39.03
67803;BME280;72185;51.378;-1.342;2023-11-19T05:49:38;99369.79;;;17.36;39.40
67803;BME280;72185;51.378;-1.342;2023-11-19T05:52:04;99377.59;;;17.54;39.11
67803;BME280;72185;51.378;-1.342;2023-11-19T05:54:29;99364.77;;;17.40;39.28
67803;BME280;72185;51.378;-1.342;2023-11-19T05:56:55;99370.04;;;17.53;39.11
67803;BME280;72185;51.378;-1.342;2023-11-19T05:59:21;99367.33;;;17.43;39.19
67803;BME280;72185;51.378;-1.342;2023-11-19T06:01:46;99372.40;;;16.97;39.20
67803;BME280;72185;51.378;-1.342;2023-11-19T06:04:12;99372.29;;;17.52;39.10
67803;BME280;72185;51.378;-1.342;2023-11-19T06:06:37;99371.47;;;16.73;39.86
67803;BME280;72185;51.378;-1.342;2023-11-19T06:09:03;99369.98;;;16.79;39.44
67803;BME280;72185;51.378;-1.342;2023-11-19T06:11:28;99371.26;;;16.85;40.06
67803;BME280;72185;51.378;-1.342;2023-11-19T06:13:54;99377.84;;;16.51;39.80
67803;BME280;72185;51.378;-1.342;2023-11-19T06:16:21;99383.15;;;17.31;39.40
67803;BME280;72185;51.378;-1.342;2023-11-19T06:18:45;99382.34;;;17.08;39.72
67803;BME280;72185;51.378;-1.342;2023-11-19T06:21:11;99385.51;;;16.71;40.21
67803;BME280;72185;51.378;-1.342;2023-11-19T06:23:36;99393.07;;;17.19;39.68
67803;BME280;72185;51.378;-1.342;2023-11-19T06:26:02;99394.96;;;17.25;39.51
67803;BME280;72185;51.378;-1.342;2023-11-19T06:28:27;99387.63;;;17.35;39.68
67803;BME280;72185;51.378;-1.342;2023-11-19T06:30:53;99385.48;;;16.65;39.60
67803;BME280;72185;51.378;-1.342;2023-11-19T06:33:19;99383.69;;;16.74;39.50
67803;BME280;72185;51.378;-1.342;2023-11-19T06:35:44;99386.47;;;16.85;39.70
67803;BME280;72185;51.378;-1.342;2023-11-19T06:38:10;99386.98;;;16.88;39.65
67803;BME280;72185;51.378;-1.342;2023-11-19T06:40:35;99387.20;;;16.67;39.96
67803;BME280;72185;51.378;-1.342;2023-11-19T06:43:01;99401.52;;;16.99;39.83
67803;BME280;72185;51.378;-1.342;2023-11-19T06:45:26;99387.43;;;17.34;39.27
67803;BME280;72185;51.378;-1.342;2023-11-19T06:47:52;99382.09;;;17.10;39.34
67803;BME280;72185;51.378;-1.342;2023-11-19T06:50:17;99388.68;;;17.25;39.40
67803;BME280;72185;51.378;-1.342;2023-11-19T06:52:43;99383.84;;;16.83;39.70
67803;BME280;72185;51.378;-1.342;2023-11-19T06:55:09;99378.37;;;16.88;39.63
67803;BME280;72185;51.378;-1.342;2023-11-19T06:57:34;99378.68;;;16.93;39.83
67803;BME280;72185;51.378;-1.342;2023-11-19T06:59:59;99374.70;;;16.92;39.85
67803;BME280;72185;51.378;-1.342;2023-11-19T07:02:25;99380.94;;;16.80;39.70
67803;BME280;72185;51.378;-1.342;2023-11-19T07:04:51;99389.64;;;16.46;40.15
67803;BME280;72185;51.378;-1.342;2023-11-19T07:07:16;99386.86;;;16.88;39.94
67803;BME280;72185;51.378;-1.342;2023-11-19T07:09:42;99390.13;;;16.80;40.00
67803;BME280;72185;51.378;-1.342;2023-11-19T07:12:07;99399.40;;;16.93;39.81
67803;BME280;72185;51.378;-1.342;2023-11-19T07:14:33;99402.13;;;17.07;39.66
67803;BME280;72185;51.378;-1.342;2023-11-19T07:16:59;99398.97;;;16.99;39.74
67803;BME280;72185;51.378;-1.342;2023-11-19T07:19:24;99395.22;;;16.98;39.77
67803;BME280;72185;51.378;-1.342;2023-11-19T07:21:49;99398.39;;;16.90;39.83
67803;BME280;72185;51.378;-1.342;2023-11-19T07:24:15;99394.73;;;17.35;39.52
67803;BME280;72185;51.378;-1.342;2023-11-19T07:26:43;99389.53;;;17.11;39.55
67803;BME280;72185;51.378;-1.342;2023-11-19T07:29:06;99397.26;;;17.32;39.22
67803;BME280;72185;51.378;-1.342;2023-11-19T07:31:31;99398.26;;;17.11;39.19
67803;BME280;72185;51.378;-1.342;2023-11-19T07:33:57;99394.23;;;16.50;39.65
67803;BME280;72185;51.378;-1.342;2023-11-19T07:36:22;99397.19;;;17.15;39.39
67803;BME280;72185;51.378;-1.342;2023-11-19T07:38:48;99387.63;;;17.08;39.50
67803;BME280;72185;51.378;-1.342;2023-11-19T07:41:14;99387.67;;;17.22;39.32
67803;BME280;72185;51.378;-1.342;2023-11-19T07:43:39;99393.78;;;17.22;39.29
67803;BME280;72185;51.378;-1.342;2023-11-19T07:46:05;99390.79;;;16.80;39.89
67803;BME280;72185;51.378;-1.342;2023-11-19T07:48:30;99402.37;;;16.16;40.14
67803;BME280;72185;51.378;-1.342;2023-11-19T07:50:56;99403.45;;;17.18;39.43
67803;BME280;72185;51.378;-1.342;2023-11-19T07:53:21;99404.55;;;17.03;39.63
67803;BME280;72185;51.378;-1.342;2023-11-19T07:55:47;99404.22;;;17.17;39.43
67803;BME280;72185;51.378;-1.342;2023-11-19T07:58:12;99400.56;;;16.75;40.02
67803;BME280;72185;51.378;-1.342;2023-11-19T08:00:38;99403.27;;;16.93;39.80
67803;BME280;72185;51.378;-1.342;2023-11-19T08:03:04;99404.84;;;16.84;39.59
67803;BME280;72185;51.378;-1.342;2023-11-19T08:05:29;99399.87;;;17.13;39.52
67803;BME280;72185;51.378;-1.342;2023-11-19T08:07:55;99407.29;;;16.74;39.34
67803;BME280;72185;51.378;-1.342;2023-11-19T08:10:20;99402.41;;;17.12;39.16
67803;BME280;72185;51.378;-1.342;2023-11-19T08:12:46;99408.77;;;17.12;39.52
67803;BME280;72185;51.378;-1.342;2023-11-19T08:15:11;99403.35;;;17.11;39.57
67803;BME280;72185;51.378;-1.342;2023-11-19T08:17:37;99405.83;;;16.93;39.75
67803;BME280;72185;51.378;-1.342;2023-11-19T08:20:03;99403.85;;;17.24;39.35
67803;BME280;72185;51.378;-1.342;2023-11-19T08:22:28;99400.70;;;16.94;39.08
67803;BME280;72185;51.378;-1.342;2023-11-19T08:24:54;99408.25;;;17.05;39.24
67803;BME280;72185;51.378;-1.342;2023-11-19T08:27:19;99399.25;;;17.06;39.57
67803;BME280;72185;51.378;-1.342;2023-11-19T08:29:44;99406.99;;;17.10;39.27
67803;BME280;72185;51.378;-1.342;2023-11-19T08:32:10;99410.22;;;16.73;39.72
67803;BME280;72185;51.378;-1.342;2023-11-19T08:34:36;99409.99;;;17.32;39.25
67803;BME280;72185;51.378;-1.342;2023-11-19T08:37:01;99407.65;;;16.84;39.64
67803;BME280;72185;51.378;-1.342;2023-11-19T08:39:27;99411.38;;;16.82;39.93
67803;BME280;72185;51.378;-1.342;2023-11-19T08:41:52;99407.01;;;16.93;39.52
67803;BME280;72185;51.378;-1.342;2023-11-19T08:44:18;99405.00;;;17.06;39.70
67803;BME280;72185;51.378;-1.342;2023-11-19T08:46:47;99406.88;;;17.56;39.01
67803;BME280;72185;51.378;-1.342;2023-11-19T08:49:09;99403.18;;;17.05;39.67
67803;BME280;72185;51.378;-1.342;2023-11-19T08:51:34;99396.77;;;17.61;38.62
67803;BME280;72185;51.378;-1.342;2023-11-19T08:54:00;99404.75;;;17.75;38.69
67803;BME280;72185;51.378;-1.342;2023-11-19T08:56:26;99402.14;;;17.99;38.42
67803;BME280;72185;51.378;-1.342;2023-11-19T08:58:51;99397.17;;;17.88;38.22
67803;BME280;72185;51.378;-1.342;2023-11-19T09:01:17;99392.57;;;17.87;38.22
67803;BME280;72185;51.378;-1.342;2023-11-19T09:03:42;99380.50;;;18.00;38.04
67803;BME280;72185;51.378;-1.342;2023-11-19T09:06:08;99386.68;;;17.48;38.38
67803;BME280;72185;51.378;-1.342;2023-11-19T09:08:33;99391.78;;;18.13;38.18
67803;BME280;72185;51.378;-1.342;2023-11-19T09:10:58;99389.49;;;17.82;37.96
67803;BME280;72185;51.378;-1.342;2023-11-19T09:13:24;99389.85;;;17.92;38.46
67803;BME280;72185;51.378;-1.342;2023-11-19T09:15:50;99388.68;;;17.80;38.05
67803;BME280;72185;51.378;-1.342;2023-11-19T09:18:15;99386.05;;;18.18;37.94
67803;BME280;72185;51.378;-1.342;2023-11-19T09:20:41;99385.11;;;18.33;37.51
67803;BME280;72185;51.378;-1.342;2023-11-19T09:23:06;99378.84;;;18.96;37.32
67803;BME280;72185;51.378;-1.342;2023-11-19T09:25:32;99373.86;;;18.76;37.20
67803;BME280;72185;51.378;-1.342;2023-11-19T09:27:57;99385.12;;;18.76;37.25
67803;BME280;72185;51.378;-1.342;2023-11-19T09:30:23;99394.64;;;18.39;37.34
67803;BME280;72185;51.378;-1.342;2023-11-19T09:32:48;99383.13;;;18.43;37.63
67803;BME280;72185;51.378;-1.342;2023-11-19T09:35:14;99382.48;;;18.02;37.79
67803;BME280;72185;51.378;-1.342;2023-11-19T09:37:39;99384.61;;;18.17;37.69
67803;BME280;72185;51.378;-1.342;2023-11-19T09:40:06;99384.56;;;18.51;37.25
67803;BME280;72185;51.378;-1.342;2023-11-19T09:42:32;99374.58;;;18.75;37.05
67803;BME280;72185;51.378;-1.342;2023-11-19T09:44:56;99378.28;;;19.24;37.03
67803;BME280;72185;51.378;-1.342;2023-11-19T09:47:22;99377.28;;;18.85;37.29
67803;BME280;72185;51.378;-1.342;2023-11-19T09:49:48;99383.96;;;18.83;37.28
67803;BME280;72185;51.378;-1.342;2023-11-19T09:52:13;99382.18;;;18.65;37.48
67803;BME280;72185;51.378;-1.342;2023-11-19T09:54:38;99377.04;;;18.30;37.52
67803;BME280;72185;51.378;-1.342;2023-11-19T09:57:04;99373.58;;;18.92;37.42
67803;BME280;72185;51.378;-1.342;2023-11-19T09:59:30;99371.03;;;18.72;37.62
67803;BME280;72185;51.378;-1.342;2023-11-19T10:01:56;99369.89;;;18.72;37.61
67803;BME280;72185;51.378;-1.342;2023-11-19T10:04:20;99378.82;;;18.14;37.74
67803;BME280;72185;51.378;-1.342;2023-11-19T10:06:46;99385.77;;;18.44;37.77
67803;BME280;72185;51.378;-1.342;2023-11-19T10:09:12;99373.60;;;18.35;37.81
67803;BME280;72185;51.378;-1.342;2023-11-19T10:11:37;99385.40;;;18.27;37.91
67803;BME280;72185;51.378;-1.342;2023-11-19T10:14:02;99386.81;;;18.46;37.72
67803;BME280;72185;51.378;-1.342;2023-11-19T10:16:29;99391.64;;;18.31;37.84
67803;BME280;72185;51.378;-1.342;2023-11-19T10:18:53;99390.28;;;18.06;37.81
67803;BME280;72185;51.378;-1.342;2023-11-19T10:21:19;99398.06;;;18.42;37.70
67803;BME280;72185;51.378;-1.342;2023-11-19T10:23:49;99390.04;;;18.05;37.78
67803;BME280;72185;51.378;-1.342;2023-11-19T10:26:10;99396.50;;;18.50;37.83
67803;BME280;72185;51.378;-1.342;2023-11-19T10:28:39;99391.46;;;17.99;37.83
67803;BME280;72185;51.378;-1.342;2023-11-19T10:31:01;99391.36;;;18.43;37.89
67803;BME280;72185;51.378;-1.342;2023-11-19T10:33:30;99399.31;;;18.05;37.74
67803;BME280;72185;51.378;-1.342;2023-11-19T10:35:53;99399.92;;;17.95;37.82
67803;BME280;72185;51.378;-1.342;2023-11-19T10:38:17;99397.09;;;18.28;37.74
67803;BME280;72185;51.378;-1.342;2023-11-19T10:40:43;99402.57;;;18.16;37.59
67803;BME280;72185;51.378;-1.342;2023-11-19T10:43:09;99395.85;;;18.27;37.74
67803;BME280;72185;51.378;-1.342;2023-11-19T10:45:34;99400.48;;;18.31;37.71
67803;BME280;72185;51.378;-1.342;2023-11-19T10:47:59;99394.06;;;18.65;37.55
67803;BME280;72185;51.378;-1.342;2023-11-19T10:50:25;99390.18;;;18.44;37.81
67803;BME280;72185;51.378;-1.342;2023-11-19T10:52:52;99388.95;;;18.45;37.77
67803;BME280;72185;51.378;-1.342;2023-11-19T10:55:20;99382.62;;;18.03;37.70
67803;BME280;72185;51.378;-1.342;2023-11-19T10:57:43;99383.84;;;18.08;37.63
67803;BME280;72185;51.378;-1.342;2023-11-19T11:00:09;99393.34;;;18.03;37.71
67803;BME280;72185;51.378;-1.342;2023-11-19T11:02:35;99392.88;;;18.17;37.85
67803;BME280;72185;51.378;-1.342;2023-11-19T11:04:59;99387.78;;;18.03;37.69
67803;BME280;72185;51.378;-1.342;2023-11-19T11:07:23;99398.32;;;18.00;37.75
67803;BME280;72185;51.378;-1.342;2023-11-19T11:09:49;99397.45;;;18.46;37.51
67803;BME280;72185;51.378;-1.342;2023-11-19T11:12:15;99396.70;;;18.24;38.04
67803;BME280;72185;51.378;-1.342;2023-11-19T11:14:42;99396.35;;;17.98;38.11
67803;BME280;72185;51.378;-1.342;2023-11-19T11:17:06;99400.79;;;18.46;37.51
67803;BME280;72185;51.378;-1.342;2023-11-19T11:19:30;99400.21;;;18.22;37.79
67803;BME280;72185;51.378;-1.342;2023-11-19T11:21:57;99406.87;;;17.94;37.79
67803;BME280;72185;51.378;-1.342;2023-11-19T11:24:37;99393.88;;;17.98;37.76
67803;BME280;72185;51.378;-1.342;2023-11-19T11:26:56;99392.96;;;18.47;37.75
67803;BME280;72185;51.378;-1.342;2023-11-19T11:29:19;99392.59;;;18.48;37.42
67803;BME280;72185;51.378;-1.342;2023-11-19T11:31:44;99383.36;;;18.02;38.00
67803;BME280;72185;51.378;-1.342;2023-11-19T11:34:15;99382.28;;;18.03;38.01
67803;BME280;72185;51.378;-1.342;2023-11-19T11:36:31;99379.22;;;18.03;37.70
67803;BME280;72185;51.378;-1.342;2023-11-19T11:38:58;99368.36;;;18.08;37.93
67803;BME280;72185;51.378;-1.342;2023-11-19T11:41:21;99371.00;;;18.34;37.57
67803;BME280;72185;51.378;-1.342;2023-11-19T11:43:47;99357.87;;;18.17;37.81
67803;BME280;72185;51.378;-1.342;2023-11-19T11:48:43;99357.54;;;18.26;37.70
67803;BME280;72185;51.378;-1.342;2023-11-19T11:51:03;99349.89;;;18.16;37.80
67803;BME280;72185;51.378;-1.342;2023-11-19T11:53:30;99349.68;;;17.96;37.74
67803;BME280;72185;51.378;-1.342;2023-11-19T11:55:57;99353.36;;;18.09;37.60
67803;BME280;72185;51.378;-1.342;2023-11-19T11:58:19;99341.29;;;18.14;37.81
67803;BME280;72185;51.378;-1.342;2023-11-19T12:00:47;99347.75;;;18.69;37.44
67803;BME280;72185;51.378;-1.342;2023-11-19T12:03:11;99339.78;;;18.38;37.55
67803;BME280;72185;51.378;-1.342;2023-11-19T12:05:40;99338.45;;;18.16;37.78
67803;BME280;72185;51.378;-1.342;2023-11-19T12:08:03;99335.37;;;18.46;37.72
67803;BME280;72185;51.378;-1.342;2023-11-19T12:10:29;99330.74;;;18.07;37.93
67803;BME280;72185;51.378;-1.342;2023-11-19T12:12:52;99332.38;;;18.44;37.77
67803;BME280;72185;51.378;-1.342;2023-11-19T12:15:18;99340.96;;;18.12;37.84
67803;BME280;72185;51.378;-1.342;2023-11-19T12:17:47;99333.87;;;18.51;37.64
67803;BME280;72185;51.378;-1.342;2023-11-19T12:20:09;99320.76;;;18.16;37.83
67803;BME280;72185;51.378;-1.342;2023-11-19T12:22:35;99321.57;;;18.01;38.00
67803;BME280;72185;51.378;-1.342;2023-11-19T12:25:00;99317.68;;;18.00;38.04
67803;BME280;72185;51.378;-1.342;2023-11-19T12:27:25;99322.13;;;18.14;37.84
67803;BME280;72185;51.378;-1.342;2023-11-19T12:29:51;99319.81;;;17.58;38.22
67803;BME280;72185;51.378;-1.342;2023-11-19T12:32:17;99316.59;;;17.65;38.13
67803;BME280;72185;51.378;-1.342;2023-11-19T12:34:42;99324.40;;;17.98;37.75
67803;BME280;72185;51.378;-1.342;2023-11-19T12:37:08;99320.07;;;18.03;37.99
67803;BME280;72185;51.378;-1.342;2023-11-19T12:39:33;99312.52;;;18.23;37.77
67803;BME280;72185;51.378;-1.342;2023-11-19T12:41:59;99309.81;;;18.11;37.88